createdAt,value
2023-01-27T00:01:19.455Z,81.28
2023-01-27T00:11:40.351Z,81.15
2023-01-27T00:22:01.159Z,80.77
2023-01-27T00:32:22.473Z,81.17
2023-01-27T00:42:24.747Z,80.78
2023-01-27T00:52:27.224Z,80.42
2023-01-27T01:02:29.477Z,81.03
2023-01-27T01:12:31.665Z,80.92
2023-01-27T01:22:33.900Z,80.93
2023-01-27T01:32:36.041Z,81.18
2023-01-27T01:42:51.148Z,81.08
2023-01-27T01:52:54.690Z,81.79
2023-01-27T02:02:57.167Z,82.24
2023-01-27T02:12:59.560Z,83.24
2023-01-27T02:23:07.888Z,82.59
2023-01-27T02:33:12.703Z,82.53
2023-01-27T02:43:14.986Z,82.19
2023-01-27T02:53:17.216Z,81.97
2023-01-27T03:03:19.461Z,82.71
2023-01-27T03:13:26.335Z,82.88
2023-01-27T06:05:10.285Z,95.11
2023-01-27T06:15:12.735Z,91.13
2023-01-27T06:25:15.437Z,88.25
2023-01-27T06:35:17.959Z,86.97
2023-01-27T06:45:20.253Z,85.85
2023-01-27T06:55:24.366Z,85.67
2023-01-27T07:05:27.008Z,84.70
2023-01-27T07:15:30.807Z,85.23
2023-01-27T07:25:34.723Z,85.34
2023-01-27T07:35:38.779Z,84.41
2023-01-27T07:45:40.984Z,84.14
2023-01-27T07:55:43.311Z,83.97
2023-01-27T08:05:45.501Z,84.30
2023-01-27T08:15:47.881Z,84.10
2023-01-27T08:25:51.785Z,82.97
2023-01-27T08:35:53.976Z,82.75
2023-01-27T08:45:57.127Z,84.21
2023-01-27T08:56:05.936Z,83.67
2023-01-27T09:06:10.951Z,83.81
2023-01-27T09:16:13.172Z,82.83
2023-01-27T09:26:15.694Z,83.74
2023-01-27T09:36:21.494Z,85.23
2023-01-27T09:46:32.276Z,84.21
2023-01-27T09:56:43.595Z,84.77
2023-01-27T10:07:10.759Z,83.01
2023-01-27T10:17:32.043Z,83.86
2023-01-27T10:27:37.907Z,83.73
2023-01-27T10:37:42.866Z,83.52
2023-01-27T10:48:11.130Z,82.61
2023-01-27T10:58:31.674Z,83.00
2023-01-27T11:08:40.828Z,82.97
2023-01-27T11:18:46.315Z,82.59
2023-01-27T11:28:59.537Z,81.75
2023-01-27T11:39:04.811Z,82.52
2023-01-27T11:49:07.741Z,81.94
2023-01-27T11:59:17.701Z,82.26
2023-01-27T12:09:42.110Z,82.74
2023-01-27T12:19:44.400Z,82.89
2023-01-27T12:29:55.189Z,82.40
2023-01-27T12:40:02.690Z,83.31
2023-01-27T12:50:32.897Z,83.49
2023-01-27T13:00:35.356Z,83.48
2023-01-27T13:10:37.639Z,82.86
2023-01-27T13:20:49.740Z,82.47
2023-01-27T13:30:58.451Z,83.47
2023-01-27T13:41:08.194Z,83.66
2023-01-27T13:51:16.825Z,84.58
2023-01-27T14:01:28.642Z,84.49
2023-01-27T14:11:48.245Z,85.38
2023-01-27T14:22:03.363Z,86.03
2023-01-27T14:32:17.819Z,87.53
2023-01-27T14:42:34.775Z,86.92
2023-01-27T14:52:47.773Z,85.78
2023-01-27T15:03:21.447Z,84.67
2023-01-27T15:13:45.877Z,84.58
2023-01-27T15:23:58.048Z,83.15
2023-01-27T15:34:03.364Z,83.05
2023-01-27T15:44:15.937Z,82.72
2023-01-27T15:54:33.041Z,82.94
2023-01-27T16:04:35.508Z,83.65
2023-01-27T16:14:40.624Z,84.03
2023-01-27T16:24:46.266Z,85.13
2023-01-27T16:34:51.151Z,85.84
2023-01-27T16:44:54.723Z,86.98
2023-01-27T16:54:58.318Z,88.21
2023-01-27T17:05:04.337Z,88.54
2023-01-27T17:15:29.053Z,88.99
2023-01-27T17:25:37.653Z,90.47
2023-01-27T17:35:41.196Z,90.46
2023-01-27T17:45:43.726Z,90.02
2023-01-27T17:55:45.975Z,89.47
2023-01-27T18:05:51.337Z,89.25
2023-01-27T18:16:00.516Z,88.65
2023-01-27T18:26:20.316Z,88.73
2023-01-27T18:36:23.421Z,87.85
2023-01-27T18:46:26.578Z,88.50
2023-01-27T18:56:29.004Z,87.90
2023-01-27T19:06:31.392Z,87.53
2023-01-27T19:16:33.955Z,87.01
2023-01-27T19:26:36.692Z,86.33
2023-01-27T19:36:43.930Z,88.76
2023-01-27T19:46:46.211Z,86.29
2023-01-27T19:56:48.444Z,86.07
2023-01-27T20:06:50.681Z,85.51
2023-01-27T20:16:52.949Z,85.07
2023-01-27T20:26:56.554Z,85.45
2023-01-27T20:36:58.742Z,85.32
2023-01-27T20:47:00.940Z,85.94
2023-01-27T20:57:03.350Z,86.55
2023-01-27T21:07:05.738Z,85.77
2023-01-27T21:17:08.035Z,86.51
2023-01-27T21:27:10.258Z,86.32
2023-01-27T21:40:11.724Z,86.16
2023-01-27T21:50:15.076Z,86.89
2023-01-27T22:10:18.010Z,88.25
2023-01-27T22:20:20.393Z,90.39
2023-01-27T22:30:22.724Z,90.14
2023-01-27T22:40:24.935Z,89.52
2023-01-27T23:00:37.733Z,88.70
2023-01-27T23:10:40.016Z,89.09
2023-01-27T23:20:42.871Z,89.03
2023-01-27T23:30:46.458Z,88.88
2023-01-27T23:40:54.344Z,88.93
2023-01-27T23:50:56.597Z,87.43
